createdAt,value
2023-02-15T02:57:46.838Z,0.00
2023-02-15T03:13:42.467Z,0.00
2023-02-15T03:18:42.437Z,0.00
2023-02-15T03:23:42.321Z,0.00
2023-02-15T03:28:42.269Z,0.00
2023-02-15T03:33:42.312Z,0.00
2023-02-15T03:38:42.077Z,0.00
2023-02-15T03:43:42.177Z,0.00
2023-02-15T03:48:42.139Z,0.00
2023-02-15T03:53:41.892Z,0.00
2023-02-15T03:58:41.859Z,0.00
2023-02-15T04:03:45.310Z,0.00
2023-02-15T04:08:42.015Z,0.00
2023-02-15T04:57:07.441Z,0.00
2023-02-15T05:02:06.791Z,0.00
2023-02-15T06:00:39.222Z,0.00
2023-02-15T06:05:39.126Z,0.00
2023-02-15T06:10:39.038Z,0.00
2023-02-15T06:15:42.116Z,0.00
2023-02-15T06:20:38.951Z,0.00
2023-02-15T06:28:01.502Z,5.62
2023-02-15T06:34:35.196Z,11.25
2023-02-15T06:52:32.667Z,39.38
2023-02-15T06:57:32.803Z,45.00
2023-02-15T07:02:32.632Z,50.62
2023-02-15T07:07:32.422Z,61.88
2023-02-15T07:12:32.630Z,78.75
2023-02-15T07:17:35.721Z,90.00
2023-02-15T07:24:14.149Z,95.62
2023-02-15T07:29:13.918Z,112.50
2023-02-15T07:34:13.907Z,112.50
2023-02-15T07:39:14.141Z,129.38
2023-02-15T07:44:14.043Z,135.00
2023-02-15T07:49:13.819Z,151.88
2023-02-15T07:54:13.760Z,185.62
2023-02-15T08:13:29.439Z,191.25
2023-02-15T08:18:28.043Z,196.88
2023-02-15T08:23:28.284Z,230.62
2023-02-15T08:28:35.953Z,241.88
2023-02-15T08:33:27.793Z,236.25
2023-02-15T08:38:27.768Z,236.25
2023-02-15T08:43:27.829Z,303.75
2023-02-15T08:48:27.640Z,348.75
2023-02-15T08:53:27.552Z,354.38
2023-02-15T08:58:35.440Z,292.50
2023-02-15T09:03:30.625Z,298.12
2023-02-15T09:08:27.406Z,354.38
2023-02-15T09:13:27.192Z,354.38
2023-02-15T09:18:28.252Z,298.12
2023-02-15T09:23:27.552Z,331.88
2023-02-15T09:28:27.282Z,264.38
2023-02-15T09:33:27.098Z,247.50
2023-02-15T09:38:26.961Z,253.12
2023-02-15T09:43:26.896Z,236.25
2023-02-15T09:48:26.846Z,191.25
2023-02-15T09:53:26.854Z,185.62
2023-02-15T09:58:26.811Z,185.62
2023-02-15T10:03:29.631Z,180.00
2023-02-15T10:08:26.664Z,174.38
2023-02-15T10:13:26.574Z,174.38
2023-02-15T10:18:26.720Z,174.38
2023-02-15T10:23:26.431Z,174.38
2023-02-15T10:28:26.762Z,174.38
2023-02-15T10:33:26.311Z,174.38
2023-02-15T10:38:26.208Z,174.38
2023-02-15T10:43:26.173Z,174.38
2023-02-15T10:48:26.091Z,174.38
2023-02-15T10:53:25.923Z,174.38
2023-02-15T10:58:25.905Z,168.75
2023-02-15T11:03:28.851Z,168.75
2023-02-15T11:08:25.761Z,168.75
2023-02-15T11:13:33.497Z,168.75
2023-02-15T11:19:43.249Z,168.75
2023-02-15T11:24:43.200Z,168.75
2023-02-15T11:29:43.301Z,168.75
2023-02-15T11:34:42.892Z,168.75
2023-02-15T11:39:50.500Z,168.75
2023-02-15T11:44:42.921Z,168.75
2023-02-15T11:49:42.934Z,168.75
2023-02-15T11:54:50.676Z,163.12
2023-02-15T11:59:42.860Z,163.12
2023-02-15T12:04:42.706Z,163.12
2023-02-15T12:09:45.533Z,163.12
2023-02-15T12:14:42.603Z,163.12
2023-02-15T12:19:42.514Z,163.12
2023-02-15T12:24:42.409Z,163.12
2023-02-15T12:29:42.367Z,163.12
2023-02-15T12:34:42.317Z,163.12
2023-02-15T12:39:42.294Z,163.12
2023-02-15T12:44:42.089Z,163.12
2023-02-15T12:49:47.519Z,163.12
2023-02-15T12:54:43.029Z,163.12
2023-02-15T12:59:43.984Z,163.12
2023-02-15T13:04:41.851Z,163.12
2023-02-15T13:09:44.781Z,163.12
2023-02-15T13:14:41.704Z,163.12
2023-02-15T13:19:41.885Z,163.12
2023-02-15T13:24:41.576Z,168.75
2023-02-15T13:29:41.769Z,168.75
2023-02-15T13:34:41.397Z,174.38
2023-02-15T13:39:41.559Z,174.38
2023-02-15T13:44:41.208Z,208.12
2023-02-15T13:49:41.426Z,208.12
2023-02-15T13:54:41.079Z,202.50
2023-02-15T13:59:41.106Z,180.00
2023-02-15T14:04:41.076Z,185.62
2023-02-15T14:12:06.178Z,180.00
2023-02-15T14:18:45.215Z,185.62
2023-02-15T14:23:44.893Z,191.25
2023-02-15T14:28:44.892Z,157.50
2023-02-15T14:33:44.844Z,146.25
2023-02-15T14:38:44.853Z,135.00
2023-02-15T14:43:44.724Z,140.62
2023-02-15T14:48:53.282Z,135.00
2023-02-15T14:53:44.490Z,129.38
2023-02-15T14:58:44.579Z,123.75
2023-02-15T15:03:44.416Z,118.12
2023-02-15T15:08:47.392Z,112.50
2023-02-15T15:13:44.415Z,123.75
2023-02-15T15:18:44.198Z,112.50
2023-02-15T15:23:44.175Z,101.25
2023-02-15T15:28:44.080Z,95.62
2023-02-15T15:33:44.022Z,90.00
2023-02-15T15:38:44.187Z,84.38
2023-02-15T15:43:44.000Z,78.75
2023-02-15T15:50:08.904Z,67.50
2023-02-15T15:55:08.790Z,61.88
2023-02-15T16:00:08.876Z,56.25
2023-02-15T16:05:08.737Z,45.00
2023-02-15T16:10:08.952Z,39.38
2023-02-15T16:15:08.565Z,28.12
2023-02-15T16:20:08.600Z,16.88
2023-02-15T16:25:10.402Z,11.25
2023-02-15T16:30:08.406Z,5.62
2023-02-15T16:35:08.508Z,0.00
2023-02-15T16:40:11.237Z,0.00
2023-02-15T16:45:08.152Z,0.00
2023-02-15T16:50:08.134Z,0.00
2023-02-15T16:55:08.025Z,0.00
2023-02-15T17:00:07.999Z,0.00
2023-02-15T17:05:08.219Z,0.00
2023-02-15T17:10:13.694Z,0.00
2023-02-15T17:15:08.185Z,0.00
2023-02-15T17:20:07.798Z,0.00
2023-02-15T17:25:07.696Z,0.00
2023-02-15T17:30:07.851Z,0.00
2023-02-15T17:35:07.605Z,0.00
2023-02-15T17:40:10.743Z,0.00
2023-02-15T17:45:10.177Z,0.00
2023-02-15T17:50:07.331Z,0.00
2023-02-15T17:55:07.563Z,0.00
2023-02-15T18:10:42.623Z,0.00
2023-02-15T18:15:42.357Z,0.00
2023-02-15T18:20:42.338Z,0.00
2023-02-15T18:25:42.066Z,0.00
2023-02-15T18:30:42.157Z,0.00
2023-02-15T18:35:42.310Z,0.00
2023-02-15T18:40:42.464Z,0.00
2023-02-15T19:06:33.101Z,0.00
2023-02-15T19:11:33.660Z,0.00
2023-02-15T19:44:35.277Z,0.00
2023-02-15T21:13:13.047Z,0.00
2023-02-15T21:18:16.098Z,0.00
2023-02-15T22:07:12.691Z,0.00
2023-02-15T22:12:12.448Z,0.00
2023-02-15T22:17:12.369Z,0.00
2023-02-15T22:22:12.518Z,0.00
2023-02-15T22:27:12.759Z,0.00
2023-02-15T22:32:13.634Z,0.00
2023-02-15T23:15:24.695Z,0.00
2023-02-15T23:20:24.025Z,0.00
2023-02-15T23:25:23.975Z,0.00
2023-02-15T23:30:24.327Z,0.00
2023-02-15T23:48:01.496Z,0.00
2023-02-15T23:53:00.275Z,0.00
2023-02-15T23:58:00.331Z,0.00
